Time;durP1;ratioP1;P1;durP2;ratioP2;P2;SDS_P1;SDS_P2;PMS_P1;PMS_P2;Temp;Humidity;BMP_temperature;BMP_pressure;BME280_temperature;BME280_humidity;BME280_pressure;Samples;Min_cycle;Max_cycle;Signal;HPM_P1;HPM_P2
2022/08/12 00:43:28;;;;;;;11.38;7.45;;;17.90;99.90;;;;;;4748283;30;20052;-87
2022/08/12 00:48:40;;;;;;;12.98;7.60;;;17.80;99.90;;;;;;4749556;30;20056;-87
2022/08/12 00:51:07;;;;;;;10.88;7.38;;;17.80;99.90;;;;;;4751859;30;20134;-87
2022/08/12 00:53:33;;;;;;;11.90;7.80;;;17.80;99.90;;;;;;4752696;30;20047;-87
2022/08/12 00:56:00;;;;;;;10.30;7.28;;;17.80;99.90;;;;;;4753134;30;20062;-87
2022/08/12 00:58:28;;;;;;;12.20;7.40;;;17.80;99.90;;;;;;4751316;30;20111;-87
2022/08/12 01:01:00;;;;;;;8.77;7.25;;;17.70;99.90;;;;;;4752732;30;20052;-87
2022/08/12 01:11:27;;;;;;;9.52;7.70;;;17.70;99.90;;;;;;4752605;30;20062;-88
2022/08/12 01:11:49;;;;;;;9.77;7.78;;;17.60;99.90;;;;;;4748716;30;20048;-87
2022/08/12 01:14:18;;;;;;;9.43;7.03;;;17.60;99.90;;;;;;4735271;30;20056;-87
2022/08/12 01:16:45;;;;;;;14.90;7.10;;;17.60;99.90;;;;;;4719995;30;20044;-86
2022/08/12 01:19:12;;;;;;;11.13;7.43;;;17.60;99.90;;;;;;4734450;30;20095;-87
2022/08/12 01:22:03;;;;;;;13.85;7.25;;;17.60;99.90;;;;;;4720251;30;20095;-86
2022/08/12 01:25:02;;;;;;;11.15;7.30;;;17.60;99.90;;;;;;4734348;30;20052;-87
2022/08/12 01:27:31;;;;;;;10.50;8.23;;;17.60;99.90;;;;;;4719262;30;20446;-86
2022/08/12 01:29:58;;;;;;;11.50;7.53;;;17.50;99.90;;;;;;4720612;30;20056;-87
2022/08/12 01:32:27;;;;;;;11.07;6.70;;;17.50;99.90;;;;;;4718969;30;20087;-87
2022/08/12 01:35:00;;;;;;;13.35;6.63;;;17.50;99.90;;;;;;4719211;30;20581;-86
2022/08/12 01:37:29;;;;;;;;;;;17.50;99.90;;;;;;4734358;30;20081;-87
2022/08/12 01:39:58;;;;;;;12.07;6.93;;;17.50;99.90;;;;;;4733971;30;19980;-87
2022/08/12 01:42:25;;;;;;;10.43;6.60;;;17.50;99.90;;;;;;4718771;30;20485;-87
2022/08/12 01:44:53;;;;;;;9.73;6.97;;;17.50;99.90;;;;;;4737361;30;20051;-87
2022/08/12 01:47:31;;;;;;;10.68;7.13;;;17.40;99.90;;;;;;4750695;30;20050;-86
2022/08/12 01:50:17;;;;;;;16.40;7.65;;;17.40;99.90;;;;;;4737489;30;20110;-87
2022/08/12 01:52:56;;;;;;;10.02;7.20;;;17.40;99.90;;;;;;4752145;30;20159;-87
2022/08/12 01:55:25;;;;;;;12.43;7.20;;;17.40;99.90;;;;;;4751061;30;20048;-87
2022/08/12 01:57:59;;;;;;;9.65;6.97;;;17.40;99.90;;;;;;4751458;30;20051;-87
2022/08/12 02:00:47;;;;;;;8.85;6.40;;;17.30;99.90;;;;;;4750441;30;20087;-87
2022/08/12 02:03:18;;;;;;;9.43;7.38;;;17.30;99.90;;;;;;4751184;30;20054;-87
2022/08/12 02:11:46;;;;;;;10.68;7.15;;;17.20;99.90;;;;;;4751368;30;20052;-87
2022/08/12 02:14:34;;;;;;;14.63;7.40;;;17.20;99.90;;;;;;4751642;30;20079;-87
2022/08/12 02:17:15;;;;;;;12.93;7.20;;;17.10;99.90;;;;;;4751099;30;20051;-87
2022/08/12 02:19:53;;;;;;;9.57;6.60;;;17.10;99.90;;;;;;4751304;30;20051;-87
2022/08/12 02:22:25;;;;;;;11.50;6.40;;;17.10;99.90;;;;;;4732545;30;20425;-87
2022/08/12 02:24:53;;;;;;;11.90;7.10;;;17.10;99.90;;;;;;4733573;30;20052;-87
2022/08/12 02:27:20;;;;;;;13.38;6.47;;;17.10;99.90;;;;;;4732829;30;20052;-87
2022/08/12 02:29:47;;;;;;;10.52;6.55;;;17.10;99.90;;;;;;4732615;30;20093;-86
2022/08/12 02:32:13;;;;;;;10.80;7.03;;;17.10;99.90;;;;;;4718589;30;20056;-87
2022/08/12 02:34:42;;;;;;;11.13;6.20;;;17.00;99.90;;;;;;4718453;30;20485;-86
2022/08/12 02:37:14;;;;;;;13.25;6.57;;;17.00;99.90;;;;;;4732620;30;20044;-86
2022/08/12 02:39:45;;;;;;;10.45;6.93;;;17.00;99.90;;;;;;4718444;30;20062;-86
2022/08/12 02:42:14;;;;;;;9.38;5.90;;;17.00;99.90;;;;;;4733164;30;20059;-86
2022/08/12 02:44:43;;;;;;;15.43;6.60;;;17.00;99.90;;;;;;4733190;30;20060;-86
2022/08/12 02:47:13;;;;;;;11.15;6.18;;;17.00;99.90;;;;;;4733330;30;20074;-87
2022/08/12 02:49:45;;;;;;;7.72;6.28;;;17.00;99.90;;;;;;4733162;30;20052;-86
2022/08/12 02:52:13;;;;;;;8.88;5.85;;;17.00;99.90;;;;;;4732011;30;20572;-86
2022/08/12 02:54:42;;;;;;;10.15;5.97;;;17.00;99.90;;;;;;4733087;30;20052;-86
2022/08/12 02:57:12;;;;;;;13.30;6.75;;;16.90;99.90;;;;;;4732768;30;20048;-87
2022/08/12 02:59:40;;;;;;;11.35;6.85;;;16.90;99.90;;;;;;4718252;30;20049;-87
2022/08/12 03:02:11;;;;;;;11.18;6.68;;;16.90;99.90;;;;;;4718040;30;20055;-87
2022/08/12 03:04:45;;;;;;;11.40;6.82;;;16.90;99.90;;;;;;4718360;30;20060;-86
2022/08/12 03:07:16;;;;;;;10.70;6.35;;;16.90;99.90;;;;;;4717720;30;20138;-86
2022/08/12 03:09:49;;;;;;;8.77;6.40;;;16.80;99.90;;;;;;4732765;30;20052;-87
2022/08/12 03:12:16;;;;;;;9.95;6.88;;;16.80;99.90;;;;;;4734025;30;20052;-86
2022/08/12 03:14:43;;;;;;;11.85;6.55;;;16.80;99.90;;;;;;4750251;30;20052;-86
2022/08/12 03:17:20;;;;;;;12.63;6.32;;;16.80;99.90;;;;;;4750123;30;20152;-87
2022/08/12 03:19:49;;;;;;;11.32;6.20;;;16.80;99.90;;;;;;4750281;30;20047;-87
2022/08/12 03:22:17;;;;;;;11.07;6.10;;;16.80;99.90;;;;;;4750223;30;20166;-86
2022/08/12 03:24:44;;;;;;;12.07;6.70;;;16.80;99.90;;;;;;4750396;30;20358;-87
2022/08/12 03:27:12;;;;;;;12.75;6.25;;;16.80;99.90;;;;;;4748977;30;20526;-86
2022/08/12 03:29:40;;;;;;;15.00;6.57;;;16.80;99.90;;;;;;4750036;30;20246;-86
2022/08/12 03:32:06;;;;;;;12.32;6.70;;;16.80;99.90;;;;;;4749631;30;20071;-86
2022/08/12 03:34:35;;;;;;;18.40;6.53;;;16.70;99.90;;;;;;4748748;30;20059;-86
2022/08/12 03:37:03;;;;;;;10.52;6.07;;;16.70;99.90;;;;;;4749958;30;20568;-86
2022/08/12 03:42:20;;;;;;;9.02;6.88;;;16.70;99.90;;;;;;4749530;30;20098;-86
2022/08/12 04:01:46;;;;;;;11.52;6.95;;;16.50;99.90;;;;;;4745307;30;20139;-85
2022/08/12 04:04:12;;;;;;;10.80;6.53;;;16.50;99.90;;;;;;4731580;30;20055;-85
2022/08/12 04:06:44;;;;;;;13.05;6.97;;;16.40;99.90;;;;;;4731453;30;20114;-86
2022/08/12 04:09:11;;;;;;;12.77;6.32;;;16.40;99.90;;;;;;4731368;30;20520;-86
2022/08/12 04:14:26;;;;;;;8.00;6.28;;;16.40;99.90;;;;;;4746270;30;20513;-89
2022/08/12 04:16:52;;;;;;;11.00;6.45;;;16.40;99.90;;;;;;4728375;30;20077;-86
2022/08/12 04:19:19;;;;;;;10.40;6.80;;;16.40;99.90;;;;;;4747616;30;20138;-86
2022/08/12 04:21:45;;;;;;;9.07;6.93;;;16.40;99.90;;;;;;4734462;30;20394;-86
2022/08/12 04:24:12;;;;;;;9.55;7.10;;;16.30;99.90;;;;;;4746821;30;20047;-87
2022/08/12 04:26:39;;;;;;;15.85;7.25;;;16.30;99.90;;;;;;4749863;30;20585;-86
2022/08/12 04:29:06;;;;;;;8.75;6.72;;;16.50;99.90;;;;;;4744409;30;20072;-86
2022/08/12 04:31:38;;;;;;;9.52;6.18;;;16.30;99.90;;;;;;4753055;30;20204;-86
2022/08/12 04:34:06;;;;;;;9.20;6.43;;;16.30;99.90;;;;;;4731489;30;20070;-87
2022/08/12 04:36:33;;;;;;;10.30;6.40;;;16.30;99.90;;;;;;4730037;30;20059;-87
2022/08/12 04:39:00;;;;;;;15.77;6.47;;;16.40;99.90;;;;;;4723954;30;20071;-86
2022/08/12 04:41:37;;;;;;;10.13;6.30;;;16.40;99.90;;;;;;4719234;30;20560;-86
2022/08/12 04:44:13;;;;;;;10.75;6.30;;;16.40;99.90;;;;;;4719708;30;20087;-86
2022/08/12 04:46:41;;;;;;;12.23;5.90;;;16.40;99.90;;;;;;4734772;30;20371;-87
2022/08/12 04:49:13;;;;;;;17.13;6.20;;;16.40;99.90;;;;;;4720706;30;20225;-85
2022/08/12 04:51:47;;;;;;;9.25;6.18;;;16.50;99.90;;;;;;4719645;30;20099;-89
2022/08/12 04:54:17;;;;;;;9.95;6.03;;;16.50;99.90;;;;;;4720457;30;20056;-86
2022/08/12 04:56:43;;;;;;;10.15;6.20;;;16.60;99.90;;;;;;4720565;30;20047;-86
2022/08/12 04:59:14;;;;;;;9.75;6.05;;;16.70;99.90;;;;;;4719339;30;20063;-86
2022/08/12 05:01:40;;;;;;;13.80;6.45;;;16.70;99.90;;;;;;4720097;30;20600;-86
2022/08/12 05:04:08;;;;;;;9.90;6.35;;;16.70;99.90;;;;;;4719027;30;20102;-86
2022/08/12 05:06:37;;;;;;;16.23;6.28;;;16.80;99.90;;;;;;4720110;30;20059;-87
2022/08/12 05:09:03;;;;;;;14.02;5.95;;;16.80;99.90;;;;;;4719687;30;20088;-86
2022/08/12 05:11:28;;;;;;;9.75;6.05;;;16.90;99.90;;;;;;4722430;30;20072;-86
2022/08/12 05:13:59;;;;;;;8.70;6.03;;;16.90;99.90;;;;;;4719858;30;20052;-86
2022/08/12 05:16:29;;;;;;;11.02;5.88;;;17.00;99.90;;;;;;4719534;30;20059;-87
2022/08/12 05:18:55;;;;;;;12.77;6.55;;;17.00;99.90;;;;;;4719678;30;20048;-86
2022/08/12 05:21:21;;;;;;;14.35;6.50;;;17.10;99.90;;;;;;4719582;30;20059;-87
2022/08/12 05:23:47;;;;;;;11.88;6.25;;;17.10;99.90;;;;;;4720317;30;20535;-86
2022/08/12 05:26:13;;;;;;;10.55;6.10;;;17.20;99.90;;;;;;4718859;30;20497;-87
2022/08/12 05:28:39;;;;;;;13.82;6.57;;;17.30;99.90;;;;;;4719312;30;20044;-86
2022/08/12 05:31:05;;;;;;;9.77;5.78;;;17.30;99.90;;;;;;4733817;30;20540;-86
2022/08/12 05:33:38;;;;;;;9.10;5.10;;;17.40;99.90;;;;;;4718908;30;20056;-87
2022/08/12 05:36:11;;;;;;;;;;;17.40;99.90;;;;;;4733812;30;20056;-87
2022/08/12 05:38:55;;;;;;;10.63;5.32;;;17.80;99.90;;;;;;4734341;30;19930;-87
2022/08/12 05:41:28;;;;;;;11.35;5.50;;;17.60;99.90;;;;;;4719992;30;20056;-86
2022/08/12 05:43:57;;;;;;;11.75;5.38;;;17.70;99.90;;;;;;4728133;30;20091;-87
2022/08/12 05:46:24;;;;;;;12.85;5.75;;;17.70;99.90;;;;;;4732890;30;20135;-87
2022/08/12 05:48:53;;;;;;;10.95;5.40;;;17.80;99.90;;;;;;4719616;30;20056;-87
2022/08/12 05:51:35;;;;;;;7.78;4.60;;;17.90;99.90;;;;;;4734087;30;20052;-87
2022/08/12 05:54:02;;;;;;;7.87;4.57;;;18.00;99.90;;;;;;4718858;30;20052;-87
2022/08/12 05:56:33;;;;;;;8.68;4.80;;;18.10;99.90;;;;;;4719429;30;20116;-87
2022/08/12 05:59:02;;;;;;;11.05;4.95;;;18.10;99.90;;;;;;4734149;30;20055;-87
2022/08/12 06:01:29;;;;;;;8.68;4.50;;;18.20;99.90;;;;;;4718869;30;20154;-87
2022/08/12 06:03:55;;;;;;;12.07;4.43;;;18.30;99.90;;;;;;4719878;30;20062;-87
2022/08/12 06:06:25;;;;;;;10.02;4.55;;;18.40;99.90;;;;;;4732964;30;20088;-87
2022/08/12 06:08:53;;;;;;;8.82;4.32;;;18.50;99.90;;;;;;4719514;30;20048;-87
2022/08/12 06:11:20;;;;;;;12.57;4.57;;;18.50;99.90;;;;;;4718968;30;20074;-88
2022/08/12 06:13:47;;;;;;;10.25;3.65;;;18.60;99.90;;;;;;4733910;30;20066;-88
2022/08/12 06:16:15;;;;;;;15.82;3.67;;;18.70;99.90;;;;;;4718504;30;20564;-88
2022/08/12 06:18:42;;;;;;;11.52;3.85;;;18.80;99.90;;;;;;4719125;30;20553;-88
2022/08/12 06:21:09;;;;;;;15.65;3.83;;;18.90;99.90;;;;;;4719529;30;20075;-87
2022/08/12 06:23:36;;;;;;;7.03;3.42;;;19.00;99.90;;;;;;4719460;30;20516;-89
2022/08/12 06:26:02;;;;;;;7.93;3.30;;;19.10;99.90;;;;;;4720196;30;20055;-88
2022/08/12 06:28:29;;;;;;;8.60;3.45;;;19.20;99.90;;;;;;4730146;30;20051;-89
2022/08/12 06:30:56;;;;;;;8.30;3.45;;;19.30;99.90;;;;;;4717138;30;20581;-87
2022/08/12 06:33:22;;;;;;;11.45;3.63;;;19.40;99.90;;;;;;4740530;30;20145;-86
2022/08/12 06:35:58;;;;;;;8.52;3.28;;;19.50;99.90;;;;;;4747576;30;20083;-86
2022/08/12 06:38:25;;;;;;;11.55;3.38;;;19.60;99.90;;;;;;4747260;30;20079;-86
2022/08/12 06:43:42;;;;;;;7.38;2.65;;;19.80;99.90;;;;;;4746478;30;20379;-86
2022/08/12 06:46:08;;;;;;;13.80;3.28;;;19.90;99.90;;;;;;4746924;30;20420;-87
2022/08/12 06:48:34;;;;;;;9.02;2.85;;;20.00;99.90;;;;;;4732596;30;20058;-86
2022/08/12 06:51:02;;;;;;;9.35;2.65;;;20.10;99.90;;;;;;4732863;30;20445;-86
2022/08/12 06:53:31;;;;;;;10.65;2.53;;;20.20;99.90;;;;;;4747847;30;20052;-86
2022/08/12 06:56:05;;;;;;;11.77;2.80;;;20.30;99.90;;;;;;4736166;30;20066;-87
2022/08/12 06:58:31;;;;;;;9.93;2.40;;;20.80;99.90;;;;;;4747808;30;20046;-85
2022/08/12 07:00:58;;;;;;;11.88;2.65;;;20.50;99.90;;;;;;4735374;30;20083;-86
2022/08/12 07:03:27;;;;;;;7.25;2.33;;;20.70;99.90;;;;;;4749289;30;20090;-86
2022/08/12 07:05:55;;;;;;;12.85;2.33;;;20.80;99.90;;;;;;4735877;30;20089;-87
2022/08/12 07:08:24;;;;;;;7.80;2.47;;;20.90;99.90;;;;;;4749680;30;20056;-86
2022/08/12 07:10:57;;;;;;;4.45;1.90;;;21.00;99.90;;;;;;4735061;30;20044;-86
2022/08/12 07:13:25;;;;;;;6.25;2.17;;;21.10;99.90;;;;;;4734742;30;20055;-86
2022/08/12 07:15:55;;;;;;;7.80;2.17;;;21.20;99.90;;;;;;4750184;30;20509;-86
2022/08/12 07:18:26;;;;;;;7.28;2.30;;;21.20;99.90;;;;;;4734203;30;20557;-87
2022/08/12 07:21:03;;;;;;;11.57;2.60;;;21.30;99.90;;;;;;4750463;30;20060;-86
2022/08/12 07:23:36;;;;;;;7.15;2.13;;;21.40;99.90;;;;;;4735661;30;20075;-86
2022/08/12 07:26:08;;;;;;;4.80;2.03;;;21.60;99.90;;;;;;4749595;30;20109;-85
2022/08/12 07:28:38;;;;;;;8.70;2.13;;;21.60;99.90;;;;;;4749674;30;20048;-86
2022/08/12 07:31:07;;;;;;;9.43;2.00;;;21.70;99.90;;;;;;4749448;30;20056;-86
2022/08/12 07:33:37;;;;;;;3.58;1.55;;;21.90;99.90;;;;;;4748726;30;20446;-86
2022/08/12 07:36:05;;;;;;;8.63;2.35;;;22.00;99.90;;;;;;4749528;30;20066;-86
2022/08/12 07:38:36;;;;;;;8.60;1.80;;;22.10;99.90;;;;;;4748571;30;20405;-87
2022/08/12 07:41:09;;;;;;;5.13;1.85;;;22.20;99.90;;;;;;4750101;30;20464;-86
2022/08/12 07:43:39;;;;;;;6.88;1.95;;;22.30;99.90;;;;;;4742805;30;20526;-87
2022/08/12 07:46:10;;;;;;;5.72;1.60;;;22.40;99.90;;;;;;4734009;30;20490;-86
2022/08/12 07:48:40;;;;;;;5.60;2.25;;;22.60;99.90;;;;;;4734680;30;20390;-86
2022/08/12 07:51:07;;;;;;;6.28;1.90;;;22.80;99.90;;;;;;4734477;30;20044;-87
2022/08/12 07:53:37;;;;;;;6.55;1.95;;;22.80;99.90;;;;;;4734188;30;20131;-86
2022/08/12 07:56:10;;;;;;;6.22;1.90;;;22.90;99.90;;;;;;4749691;30;20058;-86
2022/08/12 07:58:38;;;;;;;17.00;2.00;;;23.00;99.90;;;;;;4734269;30;20528;-87
2022/08/12 08:01:09;;;;;;;8.40;1.80;;;23.10;99.90;;;;;;4733002;30;20056;-87
2022/08/12 08:03:36;;;;;;;7.85;1.95;;;23.20;99.90;;;;;;4749666;30;20580;-86
2022/08/12 08:06:11;;;;;;;4.57;2.00;;;23.30;99.90;;;;;;4734139;30;20175;-87
2022/08/12 08:08:37;;;;;;;3.42;1.75;;;23.40;99.90;;;;;;4749257;30;20185;-86
2022/08/12 08:13:51;;;;;;;11.50;2.00;;;23.60;99.90;;;;;;4748957;30;20501;-87
2022/08/12 08:16:16;;;;;;;7.70;1.90;;;23.70;99.90;;;;;;4749310;30;20148;-86
2022/08/12 08:18:42;;;;;;;5.63;1.85;;;23.80;99.90;;;;;;4748733;30;20502;-87
2022/08/12 08:21:09;;;;;;;3.53;1.73;;;23.90;99.90;;;;;;4733589;30;20056;-86
2022/08/12 08:26:21;;;;;;;5.05;2.40;;;24.10;99.90;;;;;;4749155;30;20398;-89
2022/08/12 08:28:50;;;;;;;9.68;2.53;;;24.20;99.90;;;;;;4748972;30;20048;-89
2022/08/12 08:31:15;;;;;;;12.65;2.60;;;24.30;99.90;;;;;;4740322;30;20063;-87
2022/08/12 08:33:41;;;;;;;7.50;2.65;;;24.40;99.90;;;;;;4716108;30;20060;-88
2022/08/12 08:36:09;;;;;;;9.77;2.10;;;24.40;99.90;;;;;;4697032;30;20562;-87
2022/08/12 08:38:34;;;;;;;8.00;2.28;;;24.50;99.90;;;;;;4697845;30;20115;-88
2022/08/12 08:43:46;;;;;;;14.50;2.30;;;24.70;99.90;;;;;;4721737;30;20422;-88
2022/08/12 08:46:13;;;;;;;18.73;2.28;;;24.80;99.90;;;;;;4729747;30;20052;-86
2022/08/12 08:48:39;;;;;;;13.38;2.25;;;25.00;99.90;;;;;;4730050;30;20063;-88
2022/08/12 08:51:05;;;;;;;7.60;2.13;;;25.10;99.90;;;;;;4728211;30;20490;-86
2022/08/12 08:53:33;;;;;;;6.30;2.00;;;25.10;99.90;;;;;;4728996;30;20059;-87
2022/08/12 08:55:59;;;;;;;6.40;1.88;;;25.10;99.90;;;;;;4728837;30;20056;-86
2022/08/12 08:58:25;;;;;;;10.40;2.00;;;25.20;99.90;;;;;;4728348;30;20417;-87
2022/08/12 09:00:51;;;;;;;4.05;1.77;;;25.30;99.90;;;;;;4729014;30;20056;-86
2022/08/12 09:03:17;;;;;;;9.60;1.80;;;25.40;99.90;;;;;;4727782;30;20411;-87
2022/08/12 09:05:43;;;;;;;8.50;1.75;;;25.50;99.90;;;;;;4728928;30;20448;-86
2022/08/12 09:08:18;;;;;;;10.75;2.20;;;25.60;99.90;;;;;;4714378;30;20083;-86
2022/08/12 09:10:57;;;;;;;8.35;2.00;;;25.70;99.90;;;;;;4730226;30;20059;-87
2022/08/12 09:13:33;;;;;;;10.02;2.10;;;25.70;99.90;;;;;;4731639;30;20161;-88
2022/08/12 09:16:01;;;;;;;6.32;1.80;;;25.90;99.90;;;;;;4732230;30;20518;-87
2022/08/12 09:18:27;;;;;;;10.82;1.67;;;26.00;99.90;;;;;;4714523;30;20131;-87
2022/08/12 09:20:58;;;;;;;9.02;1.83;;;26.10;99.90;;;;;;4732337;30;20052;-87
2022/08/12 09:23:29;;;;;;;5.70;1.52;;;26.00;99.90;;;;;;4731518;30;20052;-87
2022/08/12 09:25:55;;;;;;;11.77;1.90;;;26.20;99.90;;;;;;4720585;30;20052;-87
2022/08/12 09:28:24;;;;;;;5.57;1.70;;;26.30;99.90;;;;;;4733154;30;20052;-86
2022/08/12 09:30:52;;;;;;;5.43;1.75;;;26.40;99.90;;;;;;4720145;30;20138;-87
2022/08/12 09:33:18;;;;;;;7.57;1.63;;;26.50;99.90;;;;;;4726622;30;20056;-85
2022/08/12 09:35:44;;;;;;;10.93;1.60;;;26.60;99.90;;;;;;4734661;30;20129;-88
2022/08/12 09:38:16;;;;;;;6.10;1.50;;;26.70;99.90;;;;;;4733606;30;20501;-87
2022/08/12 09:40:46;;;;;;;3.97;1.50;;;26.90;99.90;;;;;;4734606;30;20047;-87
2022/08/12 09:46:01;;;;;;;4.45;1.25;;;27.10;99.90;;;;;;4748281;30;20448;-87
2022/08/12 09:48:31;;;;;;;6.20;1.25;;;27.20;99.90;;;;;;4733960;30;20052;-87
2022/08/12 09:50:57;;;;;;;11.18;1.50;;;27.20;99.90;;;;;;4710112;30;20059;-87
2022/08/12 09:53:25;;;;;;;6.65;1.77;;;27.40;99.90;;;;;;4715266;30;20142;-87
2022/08/12 09:55:57;;;;;;;6.57;1.50;;;27.40;99.90;;;;;;4734201;30;20117;-87
2022/08/12 09:58:27;;;;;;;;;;;27.50;99.20;;;;;;4734074;30;20063;-87
2022/08/12 10:01:05;;;;;;;6.30;1.35;;;27.60;99.40;;;;;;4734011;30;19977;-87
2022/08/12 10:03:33;;;;;;;16.98;1.92;;;27.60;97.10;;;;;;4719409;30;20056;-87
2022/08/12 10:06:00;;;;;;;6.70;1.27;;;27.70;96.00;;;;;;4732669;30;20406;-86
2022/08/12 10:08:29;;;;;;;5.55;1.63;;;27.70;95.10;;;;;;4718384;30;20044;-87
2022/08/12 10:14:00;;;;;;;7.18;1.60;;;27.80;93.70;;;;;;4733021;30;20059;-87
2022/08/12 10:16:33;;;;;;;10.38;1.50;;;28.00;93.90;;;;;;4718780;30;20060;-87
2022/08/12 10:19:08;;;;;;;11.13;1.73;;;27.80;92.00;;;;;;4719320;30;20044;-87
2022/08/12 10:21:37;;;;;;;3.90;1.50;;;28.10;92.00;;;;;;4732255;30;20052;-87
2022/08/12 10:24:08;;;;;;;12.90;1.33;;;28.20;92.40;;;;;;4733593;30;20056;-88
2022/08/12 10:29:46;;;;;;;4.65;1.40;;;28.30;87.10;;;;;;4733290;30;20056;-87
2022/08/12 10:32:23;;;;;;;3.08;1.05;;;28.40;87.00;;;;;;4718578;30;20599;-86
2022/08/12 10:35:03;;;;;;;4.40;1.30;;;28.40;85.70;;;;;;4732613;30;20076;-87
2022/08/12 10:37:29;;;;;;;6.93;1.42;;;28.50;82.30;;;;;;4718426;30;20063;-87
2022/08/12 10:40:10;;;;;;;10.60;1.17;;;28.60;82.40;;;;;;4733005;30;20151;-87
2022/08/12 10:45:23;;;;;;;8.38;1.38;;;28.70;79.80;;;;;;4765174;30;20174;-88
2022/08/12 10:47:51;;;;;;;4.57;1.15;;;28.80;78.80;;;;;;4736449;30;20114;-87
2022/08/12 10:50:20;;;;;;;9.32;1.52;;;28.80;77.60;;;;;;4750978;30;20127;-87
2022/08/12 10:52:58;;;;;;;2.72;1.17;;;28.90;77.00;;;;;;4737092;30;20059;-87
2022/08/12 10:55:24;;;;;;;5.25;1.20;;;29.00;77.70;;;;;;4736850;30;20056;-88
2022/08/12 10:57:51;;;;;;;10.50;1.50;;;29.10;75.50;;;;;;4735082;30;20441;-86
2022/08/12 11:00:16;;;;;;;6.50;1.60;;;29.10;73.60;;;;;;4750365;30;20055;-87
2022/08/12 11:02:53;;;;;;;6.13;1.90;;;29.10;73.10;;;;;;4736288;30;20051;-88
2022/08/12 11:05:24;;;;;;;5.45;1.38;;;29.20;72.40;;;;;;4736346;30;20521;-88
2022/08/12 11:07:51;;;;;;;7.18;1.30;;;29.20;72.80;;;;;;4737041;30;20052;-88
2022/08/12 11:10:25;;;;;;;6.35;1.05;;;29.30;71.80;;;;;;4734125;30;20154;-88
2022/08/12 11:12:53;;;;;;;3.00;1.02;;;29.30;69.70;;;;;;4733419;30;20055;-87
2022/08/12 11:15:20;;;;;;;6.25;1.25;;;29.30;70.90;;;;;;4733220;30;20052;-88
2022/08/12 11:17:46;;;;;;;5.47;1.50;;;29.40;70.40;;;;;;4733562;30;20124;-90
2022/08/12 11:20:12;;;;;;;6.75;1.38;;;29.50;70.30;;;;;;4733798;30;20424;-87
2022/08/12 11:22:38;;;;;;;6.28;1.20;;;29.40;69.40;;;;;;4733970;30;20547;-90
2022/08/12 11:25:07;;;;;;;9.45;1.58;;;29.50;68.50;;;;;;4733953;30;20056;-89
2022/08/12 11:27:33;;;;;;;8.02;1.17;;;29.50;69.40;;;;;;4734231;30;20051;-91
2022/08/12 11:30:09;;;;;;;5.78;1.38;;;29.50;69.00;;;;;;4732355;30;20058;-89
2022/08/12 11:32:35;;;;;;;4.68;1.23;;;29.50;66.30;;;;;;4733089;30;20048;-90
2022/08/12 11:35:12;;;;;;;5.20;1.02;;;29.70;68.50;;;;;;4748551;30;20208;-90
2022/08/12 11:37:47;;;;;;;5.13;1.00;;;29.60;68.40;;;;;;4734102;30;20127;-88
2022/08/12 11:40:13;;;;;;;6.15;1.20;;;29.60;68.10;;;;;;4733545;30;20101;-89
2022/08/12 11:42:41;;;;;;;7.10;1.60;;;29.60;68.40;;;;;;4733149;30;20083;-91
2022/08/12 11:45:10;;;;;;;5.15;1.30;;;29.60;66.70;;;;;;4732987;30;20107;-90
2022/08/12 11:47:37;;;;;;;6.55;1.55;;;29.70;66.40;;;;;;4733727;30;20090;-89
2022/08/12 11:50:03;;;;;;;10.13;1.30;;;29.80;67.20;;;;;;4748694;30;20360;-90
2022/08/12 11:52:29;;;;;;;9.30;1.88;;;29.80;67.60;;;;;;4732734;30;20052;-89
2022/08/12 11:54:55;;;;;;;10.13;1.30;;;29.80;67.00;;;;;;4734613;30;20453;-89
2022/08/12 11:57:21;;;;;;;5.53;1.20;;;29.90;65.70;;;;;;4735284;30;20051;-93
2022/08/12 11:59:46;;;;;;;3.58;1.10;;;29.90;65.00;;;;;;4749954;30;20058;-88
2022/08/12 12:02:15;;;;;;;7.40;1.23;;;29.90;65.60;;;;;;4749100;30;20489;-89
2022/08/12 12:04:53;;;;;;;4.68;1.27;;;29.90;65.40;;;;;;4732358;30;20083;-89
2022/08/12 12:07:21;;;;;;;7.97;1.02;;;30.00;66.70;;;;;;4716403;30;20465;-88
2022/08/12 12:10:01;;;;;;;5.60;1.08;;;30.10;65.70;;;;;;4732910;30;20060;-89
2022/08/12 12:12:28;;;;;;;2.75;0.90;;;30.10;65.80;;;;;;4717301;30;20138;-89
2022/08/12 12:14:55;;;;;;;5.97;1.70;;;30.10;65.90;;;;;;4714394;30;20110;-88
2022/08/12 12:17:33;;;;;;;3.95;1.00;;;30.10;65.30;;;;;;4710302;30;20052;-87
2022/08/12 12:19:59;;;;;;;5.13;1.02;;;30.20;65.40;;;;;;4739527;30;20142;-88
2022/08/12 12:22:28;;;;;;;5.38;1.23;;;30.20;66.40;;;;;;4731415;30;20131;-87
2022/08/12 12:24:53;;;;;;;3.03;0.80;;;30.20;64.00;;;;;;4717196;30;20056;-88
2022/08/12 12:27:19;;;;;;;6.93;1.23;;;30.20;64.90;;;;;;4716798;30;20066;-89
2022/08/12 12:29:46;;;;;;;6.65;0.80;;;30.20;65.00;;;;;;4718024;30;20048;-89
2022/08/12 12:32:12;;;;;;;5.95;1.10;;;30.20;64.30;;;;;;4717180;30;20052;-88
2022/08/12 12:34:38;;;;;;;7.00;1.27;;;30.30;64.50;;;;;;4746245;30;20068;-86
2022/08/12 12:37:19;;;;;;;8.80;1.20;;;30.30;64.70;;;;;;4717371;30;20494;-92
2022/08/12 12:39:45;;;;;;;12.95;1.20;;;30.30;64.40;;;;;;4719914;30;20056;-89
2022/08/12 12:42:10;;;;;;;2.72;0.90;;;30.20;64.20;;;;;;4716101;30;20133;-89
2022/08/12 12:44:36;;;;;;;3.17;0.80;;;30.20;63.70;;;;;;4731492;30;20048;-89
2022/08/12 12:47:02;;;;;;;3.38;1.00;;;30.20;64.50;;;;;;4721112;30;20048;-89
2022/08/12 12:49:30;;;;;;;3.25;1.33;;;30.20;64.00;;;;;;4720661;30;20573;-89
2022/08/12 12:51:59;;;;;;;6.53;1.05;;;30.10;63.50;;;;;;4726179;30;20063;-90
2022/08/12 12:54:25;;;;;;;3.58;1.00;;;30.20;63.50;;;;;;4720990;30;20488;-89
2022/08/12 12:56:53;;;;;;;4.22;1.13;;;30.10;63.80;;;;;;4720648;30;20052;-89
2022/08/12 12:59:23;;;;;;;5.75;1.23;;;30.20;63.90;;;;;;4720992;30;20052;-89
2022/08/12 13:01:49;;;;;;;2.95;0.90;;;30.10;63.90;;;;;;4720964;30;20052;-90
2022/08/12 13:04:15;;;;;;;7.03;0.90;;;30.20;63.50;;;;;;4720875;30;20063;-90
2022/08/12 13:06:41;;;;;;;4.55;0.80;;;30.20;63.00;;;;;;4735855;30;20060;-90
2022/08/12 13:09:15;;;;;;;5.43;1.00;;;30.20;63.80;;;;;;4721312;30;20071;-89
2022/08/12 13:11:41;;;;;;;8.70;1.10;;;30.20;63.60;;;;;;4721175;30;20056;-89
2022/08/12 13:14:07;;;;;;;4.75;1.20;;;30.30;64.10;;;;;;4720354;30;20113;-89
2022/08/12 13:16:44;;;;;;;4.05;0.90;;;30.20;64.20;;;;;;4720315;30;20439;-90
2022/08/12 13:19:09;;;;;;;6.70;1.20;;;30.20;63.50;;;;;;4720719;30;20056;-89
2022/08/12 13:22:14;;;;;;;3.85;0.98;;;30.10;64.20;;;;;;4719487;30;20437;-86
2022/08/12 13:24:30;;;;;;;7.28;0.77;;;30.10;64.20;;;;;;4732791;30;20052;-86
2022/08/12 13:26:56;;;;;;;3.85;0.80;;;30.00;63.90;;;;;;4723327;30;20062;-87
2022/08/12 13:29:21;;;;;;;4.20;0.80;;;30.00;63.50;;;;;;4728290;30;20048;-91
2022/08/12 13:31:54;;;;;;;8.00;1.40;;;29.90;64.30;;;;;;4724448;30;20067;-91
2022/08/12 13:34:26;;;;;;;3.75;0.90;;;29.90;64.80;;;;;;4713561;30;20143;-96
2022/08/12 13:36:55;;;;;;;5.03;1.00;;;29.90;65.00;;;;;;4721685;30;20048;-91
2022/08/12 13:39:21;;;;;;;2.83;1.05;;;29.80;64.70;;;;;;4706381;30;20056;-89
2022/08/12 13:41:47;;;;;;;7.35;1.15;;;29.70;64.90;;;;;;4715608;30;20056;-90
2022/08/12 13:44:13;;;;;;;7.25;0.88;;;29.60;65.50;;;;;;4721308;30;20048;-92
2022/08/12 13:46:40;;;;;;;6.35;1.00;;;29.60;66.00;;;;;;4711171;30;20092;-91
2022/08/12 13:49:10;;;;;;;3.90;1.10;;;29.60;65.50;;;;;;4706427;30;20067;-91
2022/08/12 13:51:36;;;;;;;8.57;1.00;;;29.60;65.40;;;;;;4718342;30;20476;-91
2022/08/12 13:54:03;;;;;;;6.30;0.82;;;29.60;65.30;;;;;;4714925;30;20413;-92
2022/08/12 13:56:33;;;;;;;4.22;0.90;;;29.60;64.90;;;;;;4721006;30;20494;-93
2022/08/12 13:59:01;;;;;;;6.35;1.20;;;29.60;65.20;;;;;;4717933;30;20062;-92
2022/08/12 14:01:27;;;;;;;4.47;1.13;;;29.60;64.90;;;;;;4719452;30;20052;-90
2022/08/12 14:03:53;;;;;;;4.70;1.30;;;29.60;65.20;;;;;;4721234;30;20044;-90
2022/08/12 14:06:20;;;;;;;7.20;1.38;;;29.60;65.00;;;;;;4720897;30;20056;-90
2022/08/12 14:08:47;;;;;;;9.52;1.00;;;29.60;65.90;;;;;;4705872;30;20056;-90
2022/08/12 14:11:18;;;;;;;5.35;1.13;;;29.60;65.40;;;;;;4703911;30;20048;-91
2022/08/12 14:13:44;;;;;;;7.72;1.00;;;29.70;64.90;;;;;;4709326;30;20048;-92
2022/08/12 14:16:11;;;;;;;4.47;1.00;;;29.60;65.30;;;;;;4709035;30;20482;-93
2022/08/12 14:18:38;;;;;;;3.20;0.90;;;29.70;65.20;;;;;;4709489;30;20488;-94
2022/08/12 14:21:08;;;;;;;6.95;0.77;;;29.60;66.00;;;;;;4709729;30;20139;-90
2022/08/12 14:23:36;;;;;;;5.63;1.15;;;29.60;65.20;;;;;;4710993;30;20056;-90
2022/08/12 14:26:05;;;;;;;1.75;0.82;;;29.60;65.80;;;;;;4710160;30;20372;-93
2022/08/12 14:28:33;;;;;;;6.30;1.08;;;29.60;66.10;;;;;;4708307;30;20067;-91
2022/08/12 14:31:01;;;;;;;3.28;0.80;;;29.60;65.70;;;;;;4708845;30;20044;-91
2022/08/12 14:33:32;;;;;;;4.22;1.02;;;29.60;65.80;;;;;;4709354;30;20064;-91
2022/08/12 14:36:00;;;;;;;6.00;1.10;;;29.60;66.50;;;;;;4710930;30;20106;-92